createdAt,value
2019-02-28T00:00:37.266Z,74.51
2019-02-28T00:03:08.751Z,74.97
2019-02-28T00:05:39.263Z,75.19
2019-02-28T00:08:09.771Z,75.01
2019-02-28T00:10:40.327Z,75.33
2019-02-28T00:13:10.727Z,76.02
2019-02-28T00:15:41.253Z,76.29
2019-02-28T00:18:15.220Z,76.69
2019-02-28T00:20:43.948Z,76.26
2019-02-28T00:23:14.402Z,76.88
2019-02-28T00:25:44.886Z,77.57
2019-02-28T00:28:15.394Z,78.29
2019-02-28T00:30:45.893Z,78.58
2019-02-28T00:33:16.351Z,79.15
2019-02-28T00:35:47.252Z,79.53
2019-02-28T00:38:17.733Z,79.91
2019-02-28T00:40:48.219Z,79.94
2019-02-28T00:43:18.721Z,80.40
2019-02-28T00:45:49.139Z,80.95
2019-02-28T00:48:21.728Z,81.17
2019-02-28T00:50:51.790Z,81.37
2019-02-28T00:53:22.272Z,80.90
2019-02-28T00:55:52.698Z,81.10
2019-02-28T00:58:23.244Z,81.38
2019-02-28T01:00:53.789Z,81.84
2019-02-28T01:03:27.274Z,81.93
2019-02-28T01:05:56.487Z,81.93
2019-02-28T01:08:27.011Z,81.94
2019-02-28T01:10:57.479Z,81.61
2019-02-28T01:13:28.199Z,82.11
2019-02-28T01:15:58.665Z,82.32
2019-02-28T01:18:29.189Z,82.18
2019-02-28T01:20:59.661Z,82.44
2019-02-28T01:23:30.223Z,82.23
2019-02-28T01:26:00.737Z,82.37
2019-02-28T01:28:31.223Z,82.41
2019-02-28T01:31:01.723Z,82.08
2019-02-28T01:33:32.185Z,82.28
2019-02-28T01:36:02.611Z,82.40
2019-02-28T01:38:33.026Z,82.50
2019-02-28T01:41:03.526Z,82.28
2019-02-28T01:43:33.947Z,82.42
2019-02-28T01:46:04.442Z,82.57
2019-02-28T01:48:34.910Z,82.23
2019-02-28T01:51:05.388Z,82.08
2019-02-28T01:53:35.914Z,82.15
2019-02-28T01:56:06.403Z,82.53
2019-02-28T01:58:36.882Z,82.48
2019-02-28T02:01:07.424Z,82.09
2019-02-28T02:03:40.653Z,82.17
2019-02-28T02:06:10.163Z,82.12
2019-02-28T02:08:40.679Z,82.17
2019-02-28T02:11:11.176Z,82.21
2019-02-28T02:13:41.663Z,82.16
2019-02-28T02:16:12.215Z,82.06
2019-02-28T02:18:43.402Z,81.88
2019-02-28T02:21:14.865Z,81.92
2019-02-28T02:23:45.438Z,82.05
2019-02-28T02:26:15.897Z,81.92
2019-02-28T02:28:46.431Z,82.43
2019-02-28T02:31:16.929Z,82.53
2019-02-28T02:33:52.358Z,82.51
2019-02-28T02:36:19.650Z,82.73
2019-02-28T02:38:50.263Z,82.38
2019-02-28T02:41:20.775Z,82.43
2019-02-28T02:43:55.046Z,82.77
2019-02-28T02:46:23.488Z,83.01
2019-02-28T02:48:53.990Z,83.20
2019-02-28T02:51:24.491Z,83.21
2019-02-28T02:53:54.963Z,83.55
2019-02-28T02:56:25.484Z,83.51
2019-02-28T02:58:55.965Z,83.46
2019-02-28T03:01:26.472Z,83.17
2019-02-28T03:03:56.956Z,83.15
2019-02-28T03:06:27.430Z,83.35
2019-02-28T03:08:58.001Z,83.16
2019-02-28T03:11:28.403Z,83.69
2019-02-28T03:13:58.915Z,83.81
2019-02-28T03:16:48.515Z,83.87
2019-02-28T03:19:19.005Z,84.21
2019-02-28T03:21:52.631Z,84.67
2019-02-28T03:24:21.642Z,84.74
2019-02-28T03:26:52.176Z,85.10
2019-02-28T03:29:22.547Z,85.15
2019-02-28T03:31:56.766Z,85.12
2019-02-28T03:34:25.235Z,85.42
2019-02-28T03:36:57.429Z,85.95
2019-02-28T03:39:27.907Z,86.05
2019-02-28T03:41:58.364Z,86.09
2019-02-28T03:44:28.885Z,86.39
2019-02-28T03:46:59.382Z,86.48
2019-02-28T03:49:29.891Z,86.77
2019-02-28T03:52:05.511Z,86.84
2019-02-28T03:54:32.642Z,86.87
2019-02-28T03:57:03.080Z,87.00
2019-02-28T03:59:33.990Z,87.37
2019-02-28T04:02:04.566Z,87.77
2019-02-28T04:04:35.018Z,87.88
2019-02-28T04:07:05.666Z,87.87
2019-02-28T04:09:36.167Z,88.09
2019-02-28T04:12:08.646Z,88.11
2019-02-28T04:14:38.932Z,88.56
2019-02-28T04:17:09.442Z,88.60
2019-02-28T04:19:39.982Z,88.84
2019-02-28T04:22:10.582Z,88.83
2019-02-28T04:24:41.151Z,89.02
2019-02-28T04:27:11.613Z,89.26
2019-02-28T04:29:42.190Z,89.32
2019-02-28T04:32:12.730Z,89.67
2019-02-28T04:34:45.801Z,89.79
2019-02-28T04:37:15.523Z,89.58
2019-02-28T04:39:46.013Z,89.78
2019-02-28T04:42:16.507Z,89.76
2019-02-28T04:44:49.245Z,89.98
2019-02-28T04:47:19.279Z,90.29
2019-02-28T04:49:49.789Z,90.47
2019-02-28T04:52:20.317Z,90.66
2019-02-28T04:54:50.823Z,90.61
2019-02-28T04:57:21.618Z,90.79
2019-02-28T04:59:52.126Z,90.83
2019-02-28T05:02:22.663Z,90.90
2019-02-28T05:04:53.562Z,91.06
2019-02-28T05:07:26.297Z,91.35
2019-02-28T05:09:58.706Z,91.60
2019-02-28T05:12:29.323Z,91.66
2019-02-28T05:15:02.154Z,91.49
2019-02-28T05:17:32.161Z,91.75
2019-02-28T05:20:02.875Z,92.12
2019-02-28T05:22:33.836Z,92.41
2019-02-28T05:25:04.386Z,92.52
2019-02-28T05:27:36.315Z,92.37
2019-02-28T05:30:09.661Z,92.28
2019-02-28T05:32:40.258Z,92.23
2019-02-28T05:35:10.791Z,92.24
2019-02-28T05:37:46.456Z,92.34
2019-02-28T05:40:14.293Z,92.62
2019-02-28T05:42:45.315Z,92.97
2019-02-28T05:45:15.925Z,93.17
2019-02-28T05:47:47.443Z,93.20
2019-02-28T05:50:18.175Z,93.31
2019-02-28T05:52:48.706Z,93.22
2019-02-28T05:55:24.485Z,93.25
2019-02-28T05:57:51.526Z,93.18
2019-02-28T06:00:23.232Z,93.04
2019-02-28T06:02:54.413Z,93.43
2019-02-28T06:05:25.893Z,93.58
2019-02-28T06:07:56.459Z,93.63
2019-02-28T06:10:26.952Z,93.57
2019-02-28T06:12:57.483Z,93.84
2019-02-28T06:15:29.007Z,93.87
2019-02-28T06:17:59.684Z,94.18
2019-02-28T06:20:30.196Z,94.26
2019-02-28T06:23:00.735Z,94.44
2019-02-28T06:25:31.302Z,94.65
2019-02-28T06:28:01.767Z,94.81
2019-02-28T06:30:32.317Z,94.85
2019-02-28T06:33:02.813Z,94.93
2019-02-28T06:35:33.331Z,94.96
2019-02-28T06:38:06.671Z,95.24
2019-02-28T06:40:36.158Z,95.48
2019-02-28T06:43:06.652Z,95.52
2019-02-28T06:45:37.785Z,95.54
2019-02-28T06:48:08.410Z,95.58
2019-02-28T06:50:38.937Z,95.61
2019-02-28T06:53:09.557Z,95.43
2019-02-28T06:55:47.892Z,95.24
2019-02-28T06:58:19.334Z,95.12
2019-02-28T07:00:50.521Z,95.29
2019-02-28T07:03:21.077Z,95.18
2019-02-28T07:05:51.651Z,95.00
2019-02-28T07:08:24.643Z,94.85
2019-02-28T07:10:54.407Z,94.50
2019-02-28T07:13:24.996Z,94.57
2019-02-28T07:15:58.906Z,94.30
2019-02-28T07:18:27.810Z,94.39
2019-02-28T07:20:58.458Z,94.44
2019-02-28T07:23:30.189Z,94.38
2019-02-28T07:26:01.258Z,94.38
2019-02-28T07:28:36.185Z,94.40
2019-02-28T07:31:04.067Z,94.38
2019-02-28T07:33:34.534Z,94.47
2019-02-28T07:36:05.591Z,94.49
2019-02-28T07:38:37.302Z,94.24
2019-02-28T07:41:07.810Z,93.83
2019-02-28T07:43:38.373Z,93.75
2019-02-28T07:46:08.988Z,93.98
2019-02-28T07:48:39.487Z,93.93
2019-02-28T07:51:10.054Z,93.68
2019-02-28T07:53:41.981Z,93.84
2019-02-28T07:56:12.476Z,93.74
2019-02-28T07:58:43.057Z,93.56
2019-02-28T08:01:13.619Z,93.46
2019-02-28T08:03:44.944Z,93.84
2019-02-28T08:06:15.621Z,94.13
2019-02-28T08:08:46.096Z,94.26
2019-02-28T08:11:19.931Z,94.28
2019-02-28T08:13:48.884Z,94.21
2019-02-28T08:16:19.413Z,94.46
2019-02-28T08:18:51.086Z,94.61
2019-02-28T08:21:22.247Z,94.74
2019-02-28T08:23:52.735Z,94.75
2019-02-28T08:26:23.251Z,94.76
2019-02-28T08:28:53.825Z,94.74
2019-02-28T08:31:24.328Z,94.53
2019-02-28T08:33:54.917Z,94.38
2019-02-28T08:36:25.439Z,94.19
2019-02-28T08:38:55.971Z,93.73
2019-02-28T08:41:26.450Z,93.43
2019-02-28T08:43:57.026Z,93.38
2019-02-28T08:46:27.563Z,93.24
2019-02-28T08:48:58.125Z,93.34
2019-02-28T08:51:30.840Z,93.44
2019-02-28T08:54:00.870Z,93.60
2019-02-28T08:56:32.260Z,93.41
2019-02-28T08:59:11.616Z,92.84
2019-02-28T09:01:39.908Z,92.81
2019-02-28T09:04:07.606Z,92.99
2019-02-28T09:06:41.080Z,93.12
2019-02-28T09:09:14.670Z,93.01
2019-02-28T09:11:45.346Z,92.68
2019-02-28T09:14:17.802Z,92.83
2019-02-28T09:16:48.178Z,93.17
2019-02-28T09:19:18.743Z,93.33
2019-02-28T09:21:52.740Z,93.14
2019-02-28T09:24:21.707Z,92.96
2019-02-28T09:26:52.190Z,93.02
2019-02-28T09:29:22.660Z,93.06
2019-02-28T09:31:53.190Z,93.24
2019-02-28T09:34:23.676Z,92.84
2019-02-28T09:36:56.663Z,92.17
2019-02-28T09:39:26.345Z,92.11
2019-02-28T09:41:56.790Z,91.75
2019-02-28T09:44:27.301Z,91.63
2019-02-28T09:46:57.791Z,91.36
2019-02-28T09:49:28.300Z,91.05
2019-02-28T09:51:58.815Z,90.49
2019-02-28T09:54:29.408Z,90.49
2019-02-28T09:57:01.140Z,89.84
2019-02-28T09:59:37.369Z,89.30
2019-02-28T10:02:07.922Z,89.11
2019-02-28T10:04:39.073Z,89.28
2019-02-28T10:07:09.602Z,88.54
2019-02-28T10:09:40.507Z,88.78
2019-02-28T10:12:12.263Z,88.45
2019-02-28T10:14:42.820Z,88.37
2019-02-28T10:17:13.286Z,88.92
2019-02-28T10:19:45.886Z,88.89
2019-02-28T10:22:16.108Z,88.99
2019-02-28T10:24:46.599Z,89.21
2019-02-28T10:27:17.090Z,89.14
2019-02-28T10:29:47.556Z,89.18
2019-02-28T10:32:18.039Z,89.53
2019-02-28T10:34:48.537Z,89.67
2019-02-28T10:37:19.298Z,89.64
2019-02-28T10:39:51.117Z,89.58
2019-02-28T10:42:21.595Z,89.08
2019-02-28T10:44:52.131Z,88.14
2019-02-28T10:47:28.212Z,88.29
2019-02-28T10:49:55.399Z,88.26
2019-02-28T10:52:30.462Z,88.12
2019-02-28T10:54:59.194Z,88.02
2019-02-28T10:57:29.785Z,87.95
2019-02-28T11:00:00.305Z,87.35
2019-02-28T11:02:30.786Z,87.56
2019-02-28T11:05:01.267Z,87.96
2019-02-28T11:07:34.192Z,87.10
2019-02-28T11:10:04.406Z,86.44
2019-02-28T11:12:36.344Z,86.22
2019-02-28T11:15:07.281Z,86.96
2019-02-28T11:17:37.857Z,86.99
2019-02-28T11:20:21.646Z,86.82
2019-02-28T11:22:42.771Z,86.60
2019-02-28T11:25:13.685Z,86.60
2019-02-28T11:27:44.251Z,86.08
2019-02-28T11:30:16.539Z,86.92
2019-02-28T11:32:47.105Z,86.50
2019-02-28T11:35:20.062Z,86.58
2019-02-28T11:37:50.023Z,86.30
2019-02-28T11:40:22.672Z,86.08
2019-02-28T11:42:53.126Z,86.29
2019-02-28T11:45:25.716Z,85.77
2019-02-28T11:47:58.203Z,85.73
2019-02-28T11:50:28.660Z,85.95
2019-02-28T11:53:03.278Z,85.84
2019-02-28T11:55:31.418Z,85.61
2019-02-28T11:58:01.936Z,85.05
2019-02-28T12:00:35.647Z,85.26
2019-02-28T12:03:05.968Z,85.34
2019-02-28T12:05:36.700Z,84.83
2019-02-28T12:08:10.481Z,85.21
2019-02-28T12:10:39.372Z,85.11
2019-02-28T12:13:09.864Z,85.46
2019-02-28T12:15:40.373Z,85.29
2019-02-28T12:18:10.844Z,84.81
2019-02-28T12:20:41.324Z,84.70
2019-02-28T12:23:11.789Z,84.83
2019-02-28T12:25:42.929Z,84.10
2019-02-28T12:28:14.207Z,84.47
2019-02-28T12:30:44.667Z,84.05
2019-02-28T12:33:15.498Z,85.09
2019-02-28T12:35:47.385Z,85.57
2019-02-28T12:38:17.883Z,84.95
2019-02-28T12:40:49.502Z,84.40
2019-02-28T12:43:20.279Z,84.24
2019-02-28T12:45:50.845Z,84.63
2019-02-28T12:48:21.348Z,84.01
2019-02-28T12:50:51.851Z,84.19
2019-02-28T12:53:25.271Z,84.07
2019-02-28T12:55:54.557Z,84.64
2019-02-28T12:58:25.009Z,84.70
2019-02-28T13:00:56.450Z,84.74
2019-02-28T13:03:27.682Z,84.78
2019-02-28T13:05:58.215Z,84.42
2019-02-28T13:08:28.777Z,84.27
2019-02-28T13:11:03.487Z,84.21
2019-02-28T13:13:31.573Z,84.09
2019-02-28T13:16:02.058Z,83.71
2019-02-28T13:18:32.558Z,83.48
2019-02-28T13:21:06.209Z,83.12
2019-02-28T13:23:35.229Z,83.79
2019-02-28T13:26:05.851Z,83.92
2019-02-28T13:28:36.331Z,84.63
2019-02-28T13:31:06.824Z,84.59
2019-02-28T13:33:37.329Z,84.43
2019-02-28T13:36:08.329Z,83.42
2019-02-28T13:38:38.787Z,83.10
2019-02-28T13:41:09.319Z,82.76
2019-02-28T13:43:39.791Z,83.15
2019-02-28T13:46:12.934Z,83.21
2019-02-28T13:48:42.578Z,83.32
2019-02-28T13:51:13.093Z,83.16
2019-02-28T13:53:43.505Z,82.69
2019-02-28T13:56:14.008Z,82.51
2019-02-28T13:58:44.525Z,82.70
2019-02-28T14:01:15.041Z,83.13
2019-02-28T14:03:45.957Z,83.55
2019-02-28T14:06:19.782Z,82.67
2019-02-28T14:08:49.647Z,82.89
2019-02-28T14:11:20.453Z,82.58
2019-02-28T14:13:50.868Z,82.40
2019-02-28T14:16:26.336Z,83.12
2019-02-28T14:18:54.763Z,83.08
2019-02-28T14:21:25.436Z,83.27
2019-02-28T14:23:56.773Z,83.22
2019-02-28T14:26:27.388Z,82.80
2019-02-28T14:28:57.928Z,83.59
2019-02-28T14:31:29.469Z,82.94
2019-02-28T14:34:00.744Z,83.02
2019-02-28T14:36:31.350Z,82.95
2019-02-28T14:39:04.794Z,83.30
2019-02-28T14:41:34.023Z,83.69
2019-02-28T14:44:04.558Z,83.88
2019-02-28T14:46:35.084Z,83.46
2019-02-28T14:49:05.612Z,83.95
2019-02-28T14:51:36.149Z,84.47
2019-02-28T14:54:06.701Z,83.86
2019-02-28T14:56:39.520Z,84.14
2019-02-28T14:59:09.333Z,83.99
2019-02-28T15:01:39.869Z,84.13
2019-02-28T15:04:10.333Z,84.25
2019-02-28T15:06:40.820Z,84.36
2019-02-28T15:09:18.920Z,84.16
2019-02-28T15:11:49.395Z,84.04
2019-02-28T15:14:19.839Z,83.53
2019-02-28T15:16:50.411Z,83.75
2019-02-28T15:19:21.338Z,83.51
2019-02-28T15:21:53.071Z,84.21
2019-02-28T15:24:23.546Z,84.72
2019-02-28T15:26:54.095Z,84.48
2019-02-28T15:29:26.308Z,84.33
2019-02-28T15:31:56.854Z,84.68
2019-02-28T15:34:27.393Z,84.32
2019-02-28T15:36:59.344Z,84.67
2019-02-28T15:39:30.227Z,84.29
2019-02-28T15:42:00.705Z,84.69
2019-02-28T15:44:31.224Z,84.31
2019-02-28T15:47:01.729Z,84.45
2019-02-28T15:49:32.253Z,83.83
2019-02-28T15:52:05.292Z,84.21
2019-02-28T15:54:35.145Z,84.24
2019-02-28T15:57:05.743Z,84.09
2019-02-28T15:59:36.310Z,83.64
2019-02-28T16:02:07.273Z,84.13
2019-02-28T16:04:37.955Z,84.33
2019-02-28T16:07:08.450Z,84.29
2019-02-28T16:09:39.062Z,84.40
2019-02-28T16:12:12.484Z,84.43
2019-02-28T16:14:42.499Z,84.39
2019-02-28T16:17:13.071Z,84.26
2019-02-28T16:19:43.596Z,83.83
2019-02-28T16:22:18.228Z,83.84
2019-02-28T16:24:47.475Z,84.14
2019-02-28T16:27:17.954Z,84.39
2019-02-28T16:29:48.393Z,84.35
2019-02-28T16:32:18.850Z,84.02
2019-02-28T16:34:50.697Z,83.84
2019-02-28T16:37:21.177Z,84.18
2019-02-28T16:39:51.712Z,84.11
2019-02-28T16:42:24.260Z,84.38
2019-02-28T16:44:54.493Z,84.43
2019-02-28T16:47:25.218Z,84.41
2019-02-28T16:49:55.723Z,84.53
2019-02-28T16:52:26.245Z,84.47
2019-02-28T16:54:57.071Z,84.74
2019-02-28T16:57:27.968Z,84.63
2019-02-28T16:59:58.473Z,84.17
2019-02-28T17:02:29.267Z,83.80
2019-02-28T17:05:00.636Z,83.87
2019-02-28T17:07:31.141Z,83.95
2019-02-28T17:10:04.591Z,83.71
2019-02-28T17:12:46.649Z,83.75
2019-02-28T17:15:24.038Z,83.62
2019-02-28T17:17:58.247Z,83.69
2019-02-28T17:20:33.828Z,83.48
2019-02-28T17:23:01.455Z,83.49
2019-02-28T17:25:32.687Z,83.56
2019-02-28T17:28:40.159Z,83.65
2019-02-28T17:31:35.450Z,83.91
2019-02-28T17:34:06.198Z,84.02
2019-02-28T17:36:36.708Z,83.71
2019-02-28T17:39:11.368Z,83.38
2019-02-28T17:41:41.572Z,82.95
2019-02-28T17:45:15.496Z,83.43
2019-02-28T17:48:48.620Z,83.84
2019-02-28T17:51:58.563Z,83.89
2019-02-28T17:55:11.551Z,84.10
2019-02-28T17:58:09.451Z,83.77
2019-02-28T18:01:51.009Z,83.99
2019-02-28T18:05:06.417Z,84.27
2019-02-28T18:08:37.592Z,84.63
2019-02-28T18:12:06.023Z,84.45
2019-02-28T18:15:18.311Z,84.50
2019-02-28T18:19:00.832Z,84.96
2019-02-28T18:22:25.868Z,85.25
2019-02-28T18:25:30.691Z,85.70
2019-02-28T18:28:58.809Z,85.94
2019-02-28T18:31:29.539Z,86.07
2019-02-28T18:34:16.997Z,86.17
2019-02-28T18:36:47.545Z,86.38
2019-02-28T18:39:18.100Z,86.37
2019-02-28T18:41:50.739Z,86.29
2019-02-28T18:44:21.391Z,86.04
2019-02-28T18:46:52.324Z,86.06
2019-02-28T18:49:23.017Z,86.16
2019-02-28T18:51:53.606Z,86.31
2019-02-28T18:54:24.072Z,85.93
2019-02-28T18:56:54.554Z,86.01
2019-02-28T18:59:25.891Z,85.93
2019-02-28T19:01:56.612Z,85.67
2019-02-28T19:04:27.075Z,85.71
2019-02-28T19:06:57.595Z,85.26
2019-02-28T19:09:28.134Z,85.08
2019-02-28T19:11:58.700Z,85.28
2019-02-28T19:14:29.200Z,85.53
2019-02-28T19:17:00.832Z,84.73
2019-02-28T19:19:31.955Z,84.94
2019-02-28T19:22:02.467Z,85.03
2019-02-28T19:24:33.032Z,84.83
2019-02-28T19:27:03.572Z,84.98
2019-02-28T19:29:34.119Z,85.13
2019-02-28T19:32:04.754Z,84.68
2019-02-28T19:34:35.317Z,84.74
2019-02-28T19:37:05.782Z,84.76
2019-02-28T19:39:36.354Z,84.81
2019-02-28T19:42:06.898Z,84.83
2019-02-28T19:44:37.432Z,85.07
2019-02-28T19:47:07.952Z,85.05
2019-02-28T19:49:38.555Z,85.20
2019-02-28T19:52:09.093Z,84.87
2019-02-28T19:54:39.719Z,84.67
2019-02-28T19:57:10.310Z,85.19
2019-02-28T19:59:40.889Z,85.29
2019-02-28T20:02:11.898Z,85.06
2019-02-28T20:04:42.420Z,85.34
2019-02-28T20:07:14.870Z,85.26
2019-02-28T20:09:45.312Z,85.21
2019-02-28T20:12:15.885Z,84.98
2019-02-28T20:14:46.517Z,84.90
2019-02-28T20:17:17.071Z,85.23
2019-02-28T20:19:50.807Z,85.22
2019-02-28T20:22:21.454Z,85.11
2019-02-28T20:24:52.036Z,85.12
2019-02-28T20:27:22.560Z,85.14
2019-02-28T20:29:55.323Z,85.22
2019-02-28T20:32:25.400Z,85.14
2019-02-28T20:34:56.016Z,85.42
2019-02-28T20:37:26.549Z,85.32
2019-02-28T20:39:57.126Z,85.56
2019-02-28T20:42:27.684Z,85.59
2019-02-28T20:44:58.216Z,85.76
2019-02-28T20:47:28.769Z,85.77
2019-02-28T20:49:59.341Z,85.76
2019-02-28T20:52:30.020Z,85.51
2019-02-28T20:55:00.751Z,85.42
2019-02-28T20:57:31.287Z,85.55
2019-02-28T21:00:01.871Z,85.78
2019-02-28T21:02:32.381Z,85.85
2019-02-28T21:05:02.947Z,85.72
2019-02-28T21:07:33.478Z,85.71
2019-02-28T21:10:05.162Z,85.44
2019-02-28T21:12:35.890Z,85.49
2019-02-28T21:15:08.061Z,85.64
2019-02-28T21:17:38.572Z,86.10
2019-02-28T21:20:12.177Z,86.07
2019-02-28T21:22:42.612Z,86.04
2019-02-28T21:25:32.322Z,85.95
2019-02-28T21:28:02.811Z,85.73
2019-02-28T21:30:33.393Z,86.00
2019-02-28T21:33:03.902Z,85.87
2019-02-28T21:35:34.528Z,86.05
2019-02-28T21:38:05.092Z,86.19
2019-02-28T21:40:35.609Z,86.59
2019-02-28T21:43:06.188Z,86.47
2019-02-28T21:45:37.020Z,86.58
2019-02-28T21:48:07.621Z,86.51
2019-02-28T21:50:38.140Z,86.38
2019-02-28T21:53:08.643Z,86.33
2019-02-28T21:55:39.158Z,85.50
2019-02-28T21:58:09.679Z,85.68
2019-02-28T22:00:40.205Z,85.94
2019-02-28T22:03:10.747Z,86.13
2019-02-28T22:05:41.350Z,86.38
2019-02-28T22:08:11.928Z,86.59
2019-02-28T22:10:42.546Z,86.50
2019-02-28T22:13:13.210Z,86.33
2019-02-28T22:15:43.785Z,86.55
2019-02-28T22:18:14.611Z,86.70
2019-02-28T22:20:45.735Z,86.78
2019-02-28T22:23:16.615Z,87.03
2019-02-28T22:25:47.397Z,86.94
2019-02-28T22:28:18.091Z,87.29
2019-02-28T22:31:08.001Z,87.17
2019-02-28T22:33:55.685Z,87.23
2019-02-28T22:36:30.184Z,87.31
2019-02-28T22:39:00.843Z,87.38
2019-02-28T22:41:31.500Z,87.38
2019-02-28T22:44:02.075Z,86.89
2019-02-28T22:46:32.784Z,87.17
2019-02-28T22:49:03.416Z,87.18
2019-02-28T22:51:34.073Z,87.10
2019-02-28T22:54:04.745Z,87.20
2019-02-28T22:56:35.353Z,87.65
2019-02-28T22:59:05.941Z,87.69
2019-02-28T23:01:37.558Z,87.77
2019-02-28T23:04:08.417Z,88.13
2019-02-28T23:06:39.083Z,87.86
2019-02-28T23:09:09.658Z,87.90
2019-02-28T23:11:40.309Z,87.55
2019-02-28T23:14:10.892Z,86.88
2019-02-28T23:16:41.489Z,86.78
2019-02-28T23:19:12.224Z,86.71
2019-02-28T23:21:42.806Z,87.05
2019-02-28T23:24:13.500Z,87.64
2019-02-28T23:27:18.862Z,88.13
2019-02-28T23:30:12.622Z,88.21
2019-02-28T23:32:59.356Z,87.88
2019-02-28T23:35:49.974Z,87.98
2019-02-28T23:38:20.602Z,87.84
2019-02-28T23:40:51.235Z,87.91
2019-02-28T23:43:21.923Z,87.91
2019-02-28T23:45:52.592Z,87.89
2019-02-28T23:48:23.272Z,87.89
2019-02-28T23:50:53.973Z,87.86
2019-02-28T23:53:24.512Z,87.80
2019-02-28T23:55:55.157Z,87.75
2019-02-28T23:58:25.842Z,87.55
